createdAt,value
2016-03-08T00:00:55.422Z,1009.59
2016-03-08T00:01:36.222Z,1009.57
2016-03-08T00:03:01.911Z,1009.6
2016-03-08T00:03:46.025Z,1009.64
2016-03-08T00:04:49.105Z,1009.62
2016-03-08T00:05:49.108Z,1009.63
2016-03-08T00:08:04.753Z,1009.63
2016-03-08T00:09:04.678Z,1009.63
2016-03-08T00:10:04.665Z,1009.66
2016-03-08T00:11:10.933Z,1009.65
2016-03-08T00:12:17.467Z,1009.62
2016-03-08T00:13:17.439Z,1009.65
2016-03-08T00:14:04.707Z,1009.67
2016-03-08T00:15:30.475Z,1009.72
2016-03-08T00:16:04.727Z,1009.7
2016-03-08T00:18:14.358Z,1009.69
2016-03-08T00:19:14.376Z,1009.66
2016-03-08T00:20:14.426Z,1009.71
2016-03-08T00:21:27.116Z,1009.7
2016-03-08T00:22:20.666Z,1009.74
2016-03-08T00:23:40.093Z,1009.72
2016-03-08T00:24:27.062Z,1009.73
2016-03-08T00:25:48.521Z,1009.74
2016-03-08T00:26:42.257Z,1009.74
2016-03-08T00:27:45.431Z,1009.73
2016-03-08T00:29:07.529Z,1009.78
2016-03-08T00:30:20.265Z,1009.78
2016-03-08T00:31:07.581Z,1009.77
2016-03-08T00:32:27.428Z,1009.77
2016-03-08T00:33:26.023Z,1009.77
2016-03-08T00:34:51.717Z,1009.82
2016-03-08T00:35:36.953Z,1009.79
2016-03-08T00:36:59.238Z,1009.85
2016-03-08T00:40:08.496Z,1009.86
2016-03-08T00:40:52.374Z,1009.89
2016-03-08T00:41:52.438Z,1009.88
2016-03-08T00:42:52.394Z,1009.87
2016-03-08T00:44:18.085Z,1009.88
2016-03-08T00:46:23.480Z,1009.92
2016-03-08T00:47:23.482Z,1009.9
2016-03-08T00:48:49.160Z,1009.93
2016-03-08T00:49:33.129Z,1009.93
2016-03-08T00:50:52.338Z,1009.94
2016-03-08T00:52:07.793Z,1009.95
2016-03-08T00:53:07.796Z,1009.97
2016-03-08T00:54:07.815Z,1009.96
2016-03-08T00:55:17.223Z,1009.93
2016-03-08T00:56:17.195Z,1009.98
2016-03-08T00:58:32.434Z,1009.95
2016-03-08T00:59:33.063Z,1009.95
2016-03-08T01:00:32.456Z,1009.96
2016-03-08T01:01:32.490Z,1009.96
2016-03-08T01:02:32.476Z,1009.97
2016-03-08T01:03:47.670Z,1009.96
2016-03-08T01:04:47.688Z,1010.01
2016-03-08T01:06:00.441Z,1009.98
2016-03-08T01:06:47.709Z,1010.02
2016-03-08T01:08:06.914Z,1010.03
2016-03-08T01:08:53.995Z,1010.01
2016-03-08T01:10:13.413Z,1010.06
2016-03-08T01:10:57.310Z,1010.04
2016-03-08T01:12:12.597Z,1010.02
2016-03-08T01:13:12.619Z,1010
2016-03-08T01:14:18.859Z,1010
2016-03-08T01:15:12.604Z,1010.03
2016-03-08T01:16:31.806Z,1010.04
2016-03-08T01:17:18.883Z,1010.02
2016-03-08T01:18:38.332Z,1010.07
2016-03-08T01:19:12.660Z,1010.11
2016-03-08T01:20:12.629Z,1010.1
2016-03-08T01:21:22.162Z,1010.12
2016-03-08T01:23:37.352Z,1010.16
2016-03-08T01:24:37.402Z,1010.19
2016-03-08T01:25:37.981Z,1010.18
2016-03-08T01:26:37.593Z,1010.2
2016-03-08T01:27:37.407Z,1010.18
2016-03-08T01:28:37.409Z,1010.2
2016-03-08T01:30:03.082Z,1010.17
2016-03-08T01:31:07.679Z,1010.17
2016-03-08T01:32:07.681Z,1010.18
2016-03-08T01:33:48.499Z,1010.18
2016-03-08T01:34:48.532Z,1010.18
2016-03-08T01:36:03.737Z,1010.18
2016-03-08T01:37:03.757Z,1010.19
2016-03-08T01:38:03.774Z,1010.22
2016-03-08T01:39:03.792Z,1010.19
2016-03-08T01:40:13.640Z,1010.18
2016-03-08T01:41:13.423Z,1010.21
2016-03-08T01:42:26.223Z,1010.23
2016-03-08T01:43:13.428Z,1010.25
2016-03-08T01:44:39.121Z,1010.22
2016-03-08T01:45:48.671Z,1010.2
2016-03-08T01:46:48.689Z,1010.18
2016-03-08T01:47:48.708Z,1010.2
2016-03-08T01:49:01.444Z,1010.25
2016-03-08T01:49:48.917Z,1010.24
2016-03-08T01:50:48.731Z,1010.25
2016-03-08T01:51:48.936Z,1010.27
2016-03-08T01:52:48.767Z,1010.29
2016-03-08T01:53:51.364Z,1010.29
2016-03-08T01:54:51.413Z,1010.28
2016-03-08T01:56:10.605Z,1010.26
2016-03-08T01:57:04.138Z,1010.27
2016-03-08T01:58:17.093Z,1010.24
2016-03-08T01:58:51.425Z,1010.25
2016-03-08T01:59:51.443Z,1010.26
2016-03-08T02:01:51.479Z,1010.25
2016-03-08T02:02:51.466Z,1010.23
2016-03-08T02:04:04.251Z,1010.28
2016-03-08T02:04:51.488Z,1010.29
2016-03-08T02:06:10.710Z,1010.24
2016-03-08T02:07:07.305Z,1010.24
2016-03-08T02:07:54.636Z,1010.25
2016-03-08T02:09:20.311Z,1010.25
2016-03-08T02:09:55.204Z,1010.25
2016-03-08T02:12:09.788Z,1010.26
2016-03-08T02:13:35.481Z,1010.26
2016-03-08T02:14:09.793Z,1010.27
2016-03-08T02:15:09.812Z,1010.33
2016-03-08T02:16:16.095Z,1010.3
2016-03-08T02:17:09.848Z,1010.33
2016-03-08T02:18:22.585Z,1010.32
2016-03-08T02:20:25.059Z,1010.36
2016-03-08T02:21:25.061Z,1010.32
2016-03-08T02:22:26.486Z,1010.37
2016-03-08T02:23:25.083Z,1010.39
2016-03-08T02:24:25.086Z,1010.4
2016-03-08T02:25:37.841Z,1010.35
2016-03-08T02:26:25.122Z,1010.38
2016-03-08T02:27:44.330Z,1010.45
2016-03-08T02:28:37.864Z,1010.43
2016-03-08T02:29:25.146Z,1010.42
2016-03-08T02:30:25.148Z,1010.46
2016-03-08T02:31:31.433Z,1010.41
2016-03-08T02:32:25.185Z,1010.38
2016-03-08T02:33:25.172Z,1010.47
2016-03-08T02:34:25.191Z,1010.5
2016-03-08T02:35:50.883Z,1010.49
2016-03-08T02:36:34.743Z,1010.49
2016-03-08T02:37:34.761Z,1010.51
2016-03-08T02:38:34.764Z,1010.47
2016-03-08T02:39:53.987Z,1010.46
2016-03-08T02:40:34.987Z,1010.48
2016-03-08T02:41:34.804Z,1010.49
2016-03-08T02:42:54.012Z,1010.5
2016-03-08T02:43:41.093Z,1010.53
2016-03-08T02:44:54.095Z,1010.52
2016-03-08T02:45:37.972Z,1010.53
2016-03-08T02:47:03.679Z,1010.53
2016-03-08T02:47:47.587Z,1010.53
2016-03-08T02:49:06.762Z,1010.52
2016-03-08T02:49:47.578Z,1010.55
2016-03-08T02:50:47.595Z,1010.57
2016-03-08T02:52:13.270Z,1010.54
2016-03-08T02:54:12.291Z,1010.56
2016-03-08T02:55:12.309Z,1010.56
2016-03-08T02:56:12.311Z,1010.59
2016-03-08T02:57:25.050Z,1010.57
2016-03-08T02:58:12.333Z,1010.59
2016-03-08T02:59:31.554Z,1010.62
2016-03-08T03:00:41.091Z,1010.56
2016-03-08T03:01:34.638Z,1010.6
2016-03-08T03:02:41.113Z,1010.58
2016-03-08T03:03:56.912Z,1010.62
2016-03-08T03:04:56.915Z,1010.65
2016-03-08T03:05:56.933Z,1010.61
2016-03-08T03:06:56.952Z,1010.65
2016-03-08T03:07:56.954Z,1010.63
2016-03-08T03:09:16.175Z,1010.62
2016-03-08T03:10:09.710Z,1010.63
2016-03-08T03:12:16.199Z,1010.63
2016-03-08T03:12:57.015Z,1010.64
2016-03-08T03:13:57.032Z,1010.65
2016-03-08T03:15:06.472Z,1010.62
2016-03-08T03:16:06.429Z,1010.66
2016-03-08T03:17:06.447Z,1010.66
2016-03-08T03:18:06.450Z,1010.64
2016-03-08T03:19:06.467Z,1010.67
2016-03-08T03:20:07.095Z,1010.66
2016-03-08T03:21:06.504Z,1010.7
2016-03-08T03:22:35.242Z,1010.66
2016-03-08T03:23:16.057Z,1010.68
2016-03-08T03:24:41.733Z,1010.68
2016-03-08T03:25:16.061Z,1010.7
2016-03-08T03:26:16.315Z,1010.68
2016-03-08T03:27:16.083Z,1010.68
2016-03-08T03:28:25.648Z,1010.72
2016-03-08T03:29:25.650Z,1010.67
2016-03-08T03:30:26.278Z,1010.73
2016-03-08T03:31:51.347Z,1010.71
2016-03-08T03:32:38.256Z,1010.76
2016-03-08T03:33:35.428Z,1010.76
2016-03-08T03:34:35.243Z,1010.72
2016-03-08T03:35:35.245Z,1010.79
2016-03-08T03:36:35.264Z,1010.77
2016-03-08T03:37:35.266Z,1010.74
2016-03-08T03:38:48.006Z,1010.79
2016-03-08T03:39:35.287Z,1010.78
2016-03-08T03:40:35.290Z,1010.79
2016-03-08T03:41:54.515Z,1010.81
2016-03-08T03:42:38.376Z,1010.77
2016-03-08T03:43:38.379Z,1010.79
2016-03-08T03:44:44.662Z,1010.77
2016-03-08T03:45:38.400Z,1010.76
2016-03-08T03:46:38.574Z,1010.77
2016-03-08T03:47:38.420Z,1010.8
2016-03-08T03:48:57.642Z,1010.79
2016-03-08T03:49:38.457Z,1010.83
2016-03-08T03:50:38.506Z,1010.8
2016-03-08T03:51:48.073Z,1010.83
2016-03-08T03:53:13.762Z,1010.84
2016-03-08T03:53:57.640Z,1010.8
2016-03-08T03:54:57.675Z,1010.83
2016-03-08T03:55:58.270Z,1010.88
2016-03-08T03:57:10.414Z,1010.88
2016-03-08T03:58:57.731Z,1010.93
2016-03-08T03:59:57.688Z,1010.92
2016-03-08T04:00:57.705Z,1010.92
2016-03-08T04:01:57.709Z,1010.91
2016-03-08T04:03:10.461Z,1010.95
2016-03-08T04:03:57.791Z,1010.96
2016-03-08T04:05:23.419Z,1010.97
2016-03-08T04:05:57.766Z,1010.97
2016-03-08T04:06:57.779Z,1010.99
2016-03-08T04:07:58.390Z,1010.98
2016-03-08T04:08:57.799Z,1011.01
2016-03-08T04:10:12.990Z,1011.01
2016-03-08T04:11:12.992Z,1011.03
2016-03-08T04:12:13.011Z,1011.01
2016-03-08T04:13:19.357Z,1010.99
2016-03-08T04:14:13.031Z,1010.98
2016-03-08T04:15:13.051Z,1011.02
2016-03-08T04:16:13.256Z,1011
2016-03-08T04:17:32.259Z,1011.04
2016-03-08T04:18:19.339Z,1011
2016-03-08T04:20:28.282Z,1011.04
2016-03-08T04:21:53.974Z,1011.06
2016-03-08T04:22:38.243Z,1011.1
2016-03-08T04:23:38.246Z,1011.09
2016-03-08T04:25:49.205Z,1011.13
2016-03-08T04:28:04.741Z,1011.16
2016-03-08T04:29:04.744Z,1011.16
2016-03-08T04:30:05.355Z,1011.15
2016-03-08T04:31:04.765Z,1011.2
2016-03-08T04:32:04.767Z,1011.2
2016-03-08T04:33:17.521Z,1011.28
2016-03-08T04:34:17.538Z,1011.23
2016-03-08T04:35:30.479Z,1011.24
2016-03-08T04:37:04.968Z,1011.3
2016-03-08T04:38:30.565Z,1011.34
2016-03-08T04:39:14.630Z,1011.35
2016-03-08T04:40:14.632Z,1011.33
2016-03-08T04:41:40.341Z,1011.4
2016-03-08T04:42:24.200Z,1011.42
2016-03-08T04:43:24.313Z,1011.39
2016-03-08T04:45:52.306Z,1011.37
2016-03-08T04:46:52.323Z,1011.39
2016-03-08T04:47:52.342Z,1011.38
2016-03-08T04:48:58.626Z,1011.44
2016-03-08T04:50:11.567Z,1011.42
2016-03-08T04:51:11.709Z,1011.4
2016-03-08T04:52:08.680Z,1011.36
2016-03-08T04:53:08.699Z,1011.41
2016-03-08T04:54:08.702Z,1011.43
2016-03-08T04:55:21.657Z,1011.42
2016-03-08T04:56:21.567Z,1011.43
2016-03-08T04:57:34.569Z,1011.43
2016-03-08T04:58:28.243Z,1011.43
2016-03-08T04:59:43.436Z,1011.47
2016-03-08T05:00:43.439Z,1011.43
2016-03-08T05:01:43.441Z,1011.5
2016-03-08T05:02:53.023Z,1011.48
2016-03-08T05:04:08.229Z,1011.51
2016-03-08T05:05:08.262Z,1011.5
2016-03-08T05:06:08.266Z,1011.51
2016-03-08T05:08:23.458Z,1011.49
2016-03-08T05:09:23.476Z,1011.48
2016-03-08T05:10:29.776Z,1011.51
2016-03-08T05:11:23.498Z,1011.48
2016-03-08T05:12:23.515Z,1011.47
2016-03-08T05:13:23.518Z,1011.5
2016-03-08T05:14:42.742Z,1011.49
2016-03-08T05:15:23.539Z,1011.52
2016-03-08T05:17:33.092Z,1011.55
2016-03-08T05:19:48.303Z,1011.59
2016-03-08T05:20:48.336Z,1011.62
2016-03-08T05:21:48.324Z,1011.6
2016-03-08T05:22:54.591Z,1011.6
2016-03-08T05:23:51.236Z,1011.64
2016-03-08T05:24:57.519Z,1011.65
2016-03-08T05:26:03.991Z,1011.64
2016-03-08T05:26:57.525Z,1011.66
2016-03-08T05:28:01.058Z,1011.66
2016-03-08T05:29:01.077Z,1011.67
2016-03-08T05:30:04.157Z,1011.7
2016-03-08T05:31:04.161Z,1011.7
2016-03-08T05:32:10.460Z,1011.69
2016-03-08T05:33:04.384Z,1011.71
2016-03-08T05:34:04.308Z,1011.7
2016-03-08T05:35:23.421Z,1011.69
2016-03-08T05:36:07.461Z,1011.69
2016-03-08T05:37:26.679Z,1011.72
2016-03-08T05:38:42.268Z,1011.7
2016-03-08T05:39:42.004Z,1011.7
2016-03-08T05:40:42.617Z,1011.72
2016-03-08T05:41:42.025Z,1011.67
2016-03-08T05:42:42.045Z,1011.69
2016-03-08T05:44:07.734Z,1011.71
2016-03-08T05:45:07.753Z,1011.74
2016-03-08T05:46:20.334Z,1011.72
2016-03-08T05:47:17.320Z,1011.72
2016-03-08T05:49:30.005Z,1011.74
2016-03-08T05:50:36.242Z,1011.79
2016-03-08T05:51:29.994Z,1011.74
2016-03-08T05:52:42.735Z,1011.77
2016-03-08T05:53:39.455Z,1011.76
2016-03-08T05:54:39.458Z,1011.77
2016-03-08T05:55:52.211Z,1011.79
2016-03-08T05:56:39.542Z,1011.82
2016-03-08T05:57:58.701Z,1011.82
2016-03-08T05:58:39.501Z,1011.86
2016-03-08T06:00:05.190Z,1011.88
2016-03-08T06:00:49.068Z,1011.88
2016-03-08T06:01:49.070Z,1011.9
2016-03-08T06:02:49.090Z,1011.83
2016-03-08T06:03:49.295Z,1011.91
2016-03-08T06:04:49.282Z,1011.9
2016-03-08T06:06:02.024Z,1011.92
2016-03-08T06:07:14.949Z,1011.91
2016-03-08T06:08:51.688Z,1011.92
2016-03-08T06:09:51.706Z,1011.97
2016-03-08T06:10:51.725Z,1011.96
2016-03-08T06:11:53.150Z,1011.92
2016-03-08T06:12:51.746Z,1011.99
2016-03-08T06:13:51.749Z,1011.98
2016-03-08T06:15:04.486Z,1011.97
2016-03-08T06:15:51.769Z,1012
2016-03-08T06:16:52.258Z,1012
2016-03-08T06:17:51.791Z,1012.06
2016-03-08T06:18:51.794Z,1012.04
2016-03-08T06:19:51.796Z,1012.11
2016-03-08T06:20:51.830Z,1012.11
2016-03-08T06:21:51.833Z,1012.09
2016-03-08T06:22:51.835Z,1012.12
2016-03-08T06:23:52.119Z,1012.08
2016-03-08T06:24:51.872Z,1012.14
2016-03-08T06:25:52.079Z,1012.14
2016-03-08T06:26:52.174Z,1012.19
2016-03-08T06:27:51.927Z,1012.22
2016-03-08T06:28:51.914Z,1012.22
2016-03-08T06:29:51.917Z,1012.21
2016-03-08T06:30:51.934Z,1012.23
2016-03-08T06:31:51.938Z,1012.22
2016-03-08T06:32:51.956Z,1012.22
2016-03-08T06:33:51.959Z,1012.21
2016-03-08T06:34:51.992Z,1012.26
2016-03-08T06:35:52.011Z,1012.24
2016-03-08T06:36:52.186Z,1012.23
2016-03-08T06:37:52.141Z,1012.26
2016-03-08T06:38:52.020Z,1012.28
2016-03-08T06:39:52.022Z,1012.28
2016-03-08T06:40:52.336Z,1012.33
2016-03-08T06:41:52.058Z,1012.31
2016-03-08T06:42:52.295Z,1012.3
2016-03-08T06:43:52.095Z,1012.3
2016-03-08T06:44:52.097Z,1012.33
2016-03-08T06:45:52.100Z,1012.28
2016-03-08T06:47:04.853Z,1012.3
2016-03-08T06:47:52.308Z,1012.34
2016-03-08T06:48:52.141Z,1012.34
2016-03-08T06:49:52.158Z,1012.36
2016-03-08T06:50:52.177Z,1012.4
2016-03-08T06:51:52.398Z,1012.38
2016-03-08T06:53:04.932Z,1012.41
2016-03-08T06:53:52.216Z,1012.44
2016-03-08T06:54:52.234Z,1012.44
2016-03-08T06:55:52.237Z,1012.46
2016-03-08T06:56:52.271Z,1012.43
2016-03-08T06:58:05.008Z,1012.45
2016-03-08T06:58:52.307Z,1012.45
2016-03-08T06:59:52.295Z,1012.47
2016-03-08T07:00:52.313Z,1012.49
2016-03-08T07:01:52.346Z,1012.5
2016-03-08T07:03:05.130Z,1012.53
2016-03-08T07:03:52.384Z,1012.54
2016-03-08T07:05:18.058Z,1012.57
2016-03-08T07:06:01.966Z,1012.6
2016-03-08T07:07:17.156Z,1012.58
2016-03-08T07:08:17.175Z,1012.58
2016-03-08T07:09:17.194Z,1012.62
2016-03-08T07:10:29.947Z,1012.65
2016-03-08T07:11:17.231Z,1012.66
2016-03-08T07:12:42.922Z,1012.64
2016-03-08T07:13:17.266Z,1012.65
2016-03-08T07:14:17.285Z,1012.66
2016-03-08T07:15:17.303Z,1012.68
2016-03-08T07:16:17.322Z,1012.69
2016-03-08T07:17:17.340Z,1012.68
2016-03-08T07:18:17.358Z,1012.72
2016-03-08T07:19:30.111Z,1012.71
2016-03-08T07:20:17.988Z,1012.68
2016-03-08T07:21:43.088Z,1012.73
2016-03-08T07:22:52.653Z,1012.72
2016-03-08T07:23:26.997Z,1012.74
2016-03-08T07:24:27.030Z,1012.77
2016-03-08T07:25:27.033Z,1012.79
2016-03-08T07:26:27.068Z,1012.77
2016-03-08T07:27:27.085Z,1012.78
2016-03-08T07:28:27.088Z,1012.76
2016-03-08T07:29:27.123Z,1012.76
2016-03-08T07:30:27.140Z,1012.73
2016-03-08T07:31:27.159Z,1012.71
2016-03-08T07:32:27.177Z,1012.74
2016-03-08T07:33:39.930Z,1012.74
2016-03-08T07:34:27.214Z,1012.77
2016-03-08T07:35:46.438Z,1012.74
2016-03-08T07:36:27.251Z,1012.74
2016-03-08T07:37:27.253Z,1012.76
2016-03-08T07:38:27.271Z,1012.75
2016-03-08T07:39:27.305Z,1012.77
2016-03-08T07:40:27.308Z,1012.74
2016-03-08T07:41:27.530Z,1012.78
2016-03-08T07:42:27.361Z,1012.78
2016-03-08T07:43:27.364Z,1012.78
2016-03-08T07:44:27.381Z,1012.81
2016-03-08T07:45:27.399Z,1012.85
2016-03-08T07:46:27.419Z,1012.83
2016-03-08T07:47:27.421Z,1012.8
2016-03-08T07:48:27.455Z,1012.82
2016-03-08T07:49:27.457Z,1012.83
2016-03-08T07:50:27.491Z,1012.85
2016-03-08T07:51:27.650Z,1012.81
2016-03-08T07:52:27.512Z,1012.82
2016-03-08T07:53:27.531Z,1012.85
2016-03-08T07:54:33.815Z,1012.88
2016-03-08T07:55:27.568Z,1012.92
2016-03-08T07:56:46.791Z,1012.88
2016-03-08T07:57:27.604Z,1012.89
2016-03-08T07:58:28.044Z,1012.89
2016-03-08T07:59:27.857Z,1012.92
2016-03-08T08:00:46.894Z,1012.94
2016-03-08T08:01:27.660Z,1012.94
2016-03-08T08:02:27.693Z,1012.93
2016-03-08T08:03:27.680Z,1012.97
2016-03-08T08:04:27.715Z,1013
2016-03-08T08:05:27.717Z,1013.01
2016-03-08T08:06:27.751Z,1013.02
2016-03-08T08:07:27.754Z,1013.05
2016-03-08T08:08:40.507Z,1013.06
2016-03-08T08:09:27.775Z,1013.01
2016-03-08T08:10:46.999Z,1013
2016-03-08T08:11:27.827Z,1013.05
2016-03-08T08:12:53.519Z,1013.05
2016-03-08T08:13:40.441Z,1013.03
2016-03-08T08:14:50.072Z,1013.05
2016-03-08T08:15:50.090Z,1013.06
2016-03-08T08:18:31.002Z,1013.09
2016-03-08T08:20:46.245Z,1013.14
2016-03-08T08:21:46.294Z,1013.12
2016-03-08T08:23:11.952Z,1013.12
2016-03-08T08:24:08.580Z,1013.11
2016-03-08T08:25:37.474Z,1013.12
2016-03-08T08:26:35.117Z,1013.17
2016-03-08T08:27:50.466Z,1013.15
2016-03-08T08:28:50.329Z,1013.13
2016-03-08T08:29:50.347Z,1013.18
2016-03-08T08:30:50.365Z,1013.19
2016-03-08T08:31:50.383Z,1013.2
2016-03-08T08:33:03.136Z,1013.18
2016-03-08T08:33:50.654Z,1013.21
2016-03-08T08:35:16.110Z,1013.24
2016-03-08T08:36:19.254Z,1013.25
2016-03-08T08:37:00.068Z,1013.3
2016-03-08T08:38:00.181Z,1013.3
2016-03-08T08:39:09.793Z,1013.3
2016-03-08T08:41:24.987Z,1013.35
2016-03-08T08:42:25.239Z,1013.35
2016-03-08T08:43:37.773Z,1013.39
2016-03-08T08:44:37.775Z,1013.38
2016-03-08T08:45:50.733Z,1013.42
2016-03-08T08:46:44.298Z,1013.43
2016-03-08T08:48:47.569Z,1013.39
2016-03-08T08:50:09.025Z,1013.38
2016-03-08T08:51:02.778Z,1013.4
2016-03-08T08:52:02.797Z,1013.4
2016-03-08T08:53:12.174Z,1013.38
2016-03-08T08:54:12.239Z,1013.41
2016-03-08T08:55:18.492Z,1013.39
2016-03-08T08:56:13.667Z,1013.42
2016-03-08T08:57:24.982Z,1013.38
2016-03-08T08:58:15.297Z,1013.41
2016-03-08T08:59:12.285Z,1013.47
2016-03-08T09:00:41.271Z,1013.47
2016-03-08T09:01:25.243Z,1013.48
2016-03-08T09:02:34.933Z,1013.41
2016-03-08T09:03:44.501Z,1013.46
2016-03-08T09:05:10.190Z,1013.46
2016-03-08T09:05:54.054Z,1013.49
2016-03-08T09:07:19.743Z,1013.5
2016-03-08T09:11:07.707Z,1013.62
2016-03-08T09:12:07.726Z,1013.6
2016-03-08T09:13:07.743Z,1013.58
2016-03-08T09:14:07.769Z,1013.55
2016-03-08T09:15:33.491Z,1013.59
2016-03-08T09:16:49.324Z,1013.6
2016-03-08T09:17:33.214Z,1013.59
2016-03-08T09:18:33.232Z,1013.55
2016-03-08T09:19:58.925Z,1013.6
2016-03-08T09:21:03.460Z,1013.6
2016-03-08T09:23:47.436Z,1013.63
2016-03-08T09:24:44.361Z,1013.58
2016-03-08T09:25:57.114Z,1013.57
2016-03-08T09:26:53.726Z,1013.59
2016-03-08T09:27:53.760Z,1013.58
2016-03-08T09:28:53.763Z,1013.64
2016-03-08T09:30:19.452Z,1013.62
2016-03-08T09:31:22.705Z,1013.62
2016-03-08T09:32:22.582Z,1013.64
2016-03-08T09:33:35.445Z,1013.69
2016-03-08T09:34:22.634Z,1013.63
2016-03-08T09:35:48.328Z,1013.67
2016-03-08T09:36:32.172Z,1013.62
2016-03-08T09:37:32.220Z,1013.66
2016-03-08T09:40:22.823Z,1013.72
2016-03-08T09:41:22.857Z,1013.72
2016-03-08T09:42:22.875Z,1013.73
2016-03-08T09:43:22.894Z,1013.7
2016-03-08T09:44:22.927Z,1013.7
2016-03-08T09:45:22.931Z,1013.71
2016-03-08T09:46:22.964Z,1013.68
2016-03-08T09:47:22.966Z,1013.74
2016-03-08T09:48:23.189Z,1013.7
2016-03-08T09:49:42.222Z,1013.76
2016-03-08T09:50:26.147Z,1013.79
2016-03-08T09:51:45.480Z,1013.83
2016-03-08T09:52:26.183Z,1013.83
2016-03-08T09:55:13.379Z,1013.81
2016-03-08T09:56:07.132Z,1013.82
2016-03-08T09:58:16.965Z,1013.83
2016-03-08T09:59:16.999Z,1013.84
2016-03-08T10:00:32.346Z,1013.83
2016-03-08T10:01:32.332Z,1013.82
2016-03-08T10:02:45.087Z,1013.82
2016-03-08T10:03:32.369Z,1013.82
2016-03-08T10:04:51.609Z,1013.79
2016-03-08T10:05:32.406Z,1013.84
2016-03-08T10:06:32.440Z,1013.83
2016-03-08T10:07:32.475Z,1013.82
2016-03-08T10:08:33.884Z,1013.86
2016-03-08T10:09:45.218Z,1013.88
2016-03-08T10:10:35.546Z,1013.89
2016-03-08T10:11:32.517Z,1013.92
2016-03-08T10:12:45.288Z,1013.95
2016-03-08T10:13:32.569Z,1013.95
2016-03-08T10:14:32.571Z,1013.96
2016-03-08T10:15:32.653Z,1013.96
2016-03-08T10:16:32.602Z,1013.94
2016-03-08T10:17:32.627Z,1013.94
2016-03-08T10:18:32.619Z,1013.94
2016-03-08T10:19:45.355Z,1013.99
2016-03-08T10:21:42.304Z,1013.94
2016-03-08T10:24:10.270Z,1014.01
2016-03-08T10:25:10.473Z,1013.97
2016-03-08T10:26:10.286Z,1014
2016-03-08T10:27:10.303Z,1013.98
2016-03-08T10:28:16.633Z,1013.96
2016-03-08T10:29:29.541Z,1013.99
2016-03-08T10:30:23.089Z,1013.97
2016-03-08T10:31:36.107Z,1013.99
2016-03-08T10:32:10.390Z,1013.96
2016-03-08T10:34:20.519Z,1014.01
2016-03-08T10:36:55.590Z,1014.02
2016-03-08T10:37:36.402Z,1014.02
2016-03-08T10:39:52.033Z,1014.02
2016-03-08T10:40:52.052Z,1014.04
2016-03-08T10:41:52.070Z,1014.02
2016-03-08T10:42:58.385Z,1014.05
2016-03-08T10:43:58.372Z,1014.04
2016-03-08T10:45:04.860Z,1013.96
2016-03-08T10:45:52.143Z,1014.07
2016-03-08T10:47:17.834Z,1014.06
2016-03-08T10:47:56.290Z,1014.04
2016-03-08T10:50:37.108Z,1014.05
2016-03-08T10:51:11.469Z,1014.08
2016-03-08T10:52:11.487Z,1014.08
2016-03-08T10:53:26.679Z,1014.11
2016-03-08T10:54:26.696Z,1014.07
2016-03-08T10:55:39.449Z,1014.09
2016-03-08T10:56:39.483Z,1014.11
2016-03-08T10:57:52.425Z,1014.09
2016-03-08T10:58:55.570Z,1014.12
2016-03-08T11:00:05.150Z,1014.1
2016-03-08T11:02:15.078Z,1014.12
2016-03-08T11:03:15.095Z,1014.11
2016-03-08T11:04:27.848Z,1014.12
2016-03-08T11:05:27.867Z,1014.13
2016-03-08T11:06:40.838Z,1014.08
2016-03-08T11:07:15.216Z,1014.08
2016-03-08T11:09:33.689Z,1014.07
2016-03-08T11:10:33.708Z,1014.07
2016-03-08T11:11:33.727Z,1014.04
2016-03-08T11:12:48.889Z,1014.08
2016-03-08T11:13:48.922Z,1014.07
2016-03-08T11:15:01.674Z,1014.12
2016-03-08T11:15:49.584Z,1014.1
2016-03-08T11:17:08.414Z,1014.1
2016-03-08T11:17:52.307Z,1014.09
2016-03-08T11:18:52.326Z,1014.1
2016-03-08T11:19:52.344Z,1014.13
2016-03-08T11:20:52.363Z,1014.14
2016-03-08T11:21:52.381Z,1014.11
2016-03-08T11:22:52.415Z,1014.17
2016-03-08T11:24:05.167Z,1014.1
2016-03-08T11:24:53.873Z,1014.11
2016-03-08T11:26:11.673Z,1014.14
2016-03-08T11:26:55.550Z,1014.15
2016-03-08T11:28:05.132Z,1014.13
2016-03-08T11:29:30.821Z,1014.1
2016-03-08T11:30:46.624Z,1014.16
2016-03-08T11:31:46.642Z,1014.12
2016-03-08T11:32:46.661Z,1014.11
2016-03-08T11:33:46.695Z,1014.07
2016-03-08T11:34:57.744Z,1014.13
2016-03-08T11:36:23.434Z,1014.08
2016-03-08T11:37:14.421Z,1014.12
2016-03-08T11:39:16.895Z,1014.11
2016-03-08T11:40:16.913Z,1014.15
2016-03-08T11:41:18.354Z,1014.11
2016-03-08T11:42:29.685Z,1014.1
2016-03-08T11:43:18.624Z,1014.1
2016-03-08T11:44:42.675Z,1014.14
2016-03-08T11:45:26.537Z,1014.17
2016-03-08T11:46:26.555Z,1014.13
2016-03-08T11:48:08.327Z,1014.07
2016-03-08T11:48:52.829Z,1014.09
2016-03-08T11:49:52.862Z,1014.1
2016-03-08T11:50:52.880Z,1014.07
2016-03-08T11:51:53.508Z,1014.09
2016-03-08T11:53:05.651Z,1014.13
2016-03-08T11:53:52.935Z,1014.09
2016-03-08T11:54:52.954Z,1014.09
2016-03-08T11:56:18.644Z,1014.12
2016-03-08T11:57:21.709Z,1014.1
2016-03-08T11:58:24.759Z,1014.06
2016-03-08T11:59:34.324Z,1014.09
2016-03-08T12:00:34.326Z,1014.03
2016-03-08T12:01:34.518Z,1014.06
2016-03-08T12:02:34.364Z,1014.07
2016-03-08T12:03:34.444Z,1014.07
2016-03-08T12:04:34.432Z,1014.09
2016-03-08T12:05:40.702Z,1014.11
2016-03-08T12:06:34.438Z,1014.12
2016-03-08T12:07:53.678Z,1014.12
2016-03-08T12:08:34.491Z,1014.1
2016-03-08T12:09:34.494Z,1014.09
2016-03-08T12:11:44.721Z,1014.14
2016-03-08T12:12:44.723Z,1014.17
2016-03-08T12:13:44.757Z,1014.14
2016-03-08T12:14:44.760Z,1014.07
2016-03-08T12:17:27.062Z,1014.12
2016-03-08T12:18:01.409Z,1014.09
2016-03-08T12:19:01.427Z,1014.1
2016-03-08T12:20:14.210Z,1014.07
2016-03-08T12:21:01.712Z,1014.07
2016-03-08T12:22:20.685Z,1014.09
2016-03-08T12:23:02.922Z,1014.13
2016-03-08T12:25:29.428Z,1014.11
2016-03-08T12:26:29.461Z,1014.14
2016-03-08T12:27:55.153Z,1014.12
2016-03-08T12:28:39.060Z,1014.06
2016-03-08T12:30:01.597Z,1014.17
2016-03-08T12:30:58.287Z,1014.14
2016-03-08T12:32:13.478Z,1014.13
2016-03-08T12:33:13.495Z,1014.11
2016-03-08T12:35:35.922Z,1014.14
2016-03-08T12:36:35.707Z,1014.13
2016-03-08T12:37:45.555Z,1014.1
2016-03-08T12:38:45.575Z,1014.1
2016-03-08T12:39:49.733Z,1014.13
2016-03-08T12:42:06.051Z,1014.13
2016-03-08T12:42:53.319Z,1014.12
2016-03-08T12:44:08.604Z,1014.13
2016-03-08T12:45:08.606Z,1014.16
2016-03-08T12:46:15.047Z,1014.17
2016-03-08T12:47:08.658Z,1014.18
2016-03-08T12:48:21.410Z,1014.18
2016-03-08T12:50:27.916Z,1014.15
2016-03-08T12:51:08.731Z,1014.14
2016-03-08T12:52:34.421Z,1014.12
2016-03-08T12:54:18.646Z,1014.12
2016-03-08T12:55:18.679Z,1014.12
2016-03-08T12:56:28.557Z,1014.06
2016-03-08T12:58:43.750Z,1014.08
2016-03-08T12:59:43.769Z,1014.04
2016-03-08T13:00:44.240Z,1014.04
2016-03-08T13:01:53.870Z,1014.03
2016-03-08T13:02:53.889Z,1014.05
2016-03-08T13:05:03.910Z,1014.02
2016-03-08T13:06:03.926Z,1013.98
2016-03-08T13:07:19.398Z,1014
2016-03-08T13:08:19.402Z,1014
2016-03-08T13:09:32.013Z,1014.02
2016-03-08T13:10:29.000Z,1014.01
2016-03-08T13:11:29.003Z,1013.96
2016-03-08T13:12:41.771Z,1014
2016-03-08T13:13:29.665Z,1013.97
2016-03-08T13:14:48.279Z,1013.97
2016-03-08T13:15:29.092Z,1014.02
2016-03-08T13:16:54.895Z,1014.01
2016-03-08T13:18:29.912Z,1014.09
2016-03-08T13:19:29.900Z,1014.04
2016-03-08T13:20:39.464Z,1014.04
2016-03-08T13:21:39.483Z,1014.11
2016-03-08T13:22:45.767Z,1014.14
2016-03-08T13:23:39.520Z,1014.17
2016-03-08T13:24:52.291Z,1014.17
2016-03-08T13:25:39.556Z,1014.16
2016-03-08T13:27:05.249Z,1014.2
2016-03-08T13:27:39.593Z,1014.21
2016-03-08T13:28:39.611Z,1014.24
2016-03-08T13:29:55.007Z,1014.26
2016-03-08T13:30:54.854Z,1014.25
2016-03-08T13:32:07.575Z,1014.24
2016-03-08T13:33:07.594Z,1014.27
2016-03-08T13:33:54.908Z,1014.33
2016-03-08T13:35:20.582Z,1014.28
2016-03-08T13:36:23.430Z,1014.3
2016-03-08T13:37:33.041Z,1014.35
2016-03-08T13:38:33.060Z,1014.32
2016-03-08T13:39:45.813Z,1014.36